sensor_id;sensor_type;location;lat;lon;timestamp;P1;durP1;ratioP1;P2;durP2;ratioP2
30743;SDS011;17486;46.738;7.622;2023-05-21T00:02:10;11.05;;;9.73;;
30743;SDS011;17486;46.738;7.622;2023-05-21T00:04:38;10.65;;;9.65;;
30743;SDS011;17486;46.738;7.622;2023-05-21T00:07:07;10.38;;;9.27;;
30743;SDS011;17486;46.738;7.622;2023-05-21T00:09:33;10.40;;;9.30;;
30743;SDS011;17486;46.738;7.622;2023-05-21T00:11:59;10.85;;;9.73;;
30743;SDS011;17486;46.738;7.622;2023-05-21T00:14:25;10.18;;;9.18;;
30743;SDS011;17486;46.738;7.622;2023-05-21T00:16:50;11.98;;;9.45;;
30743;SDS011;17486;46.738;7.622;2023-05-21T00:19:15;10.23;;;9.25;;
30743;SDS011;17486;46.738;7.622;2023-05-21T00:21:41;12.30;;;10.25;;
30743;SDS011;17486;46.738;7.622;2023-05-21T00:24:08;11.38;;;9.73;;
30743;SDS011;17486;46.738;7.622;2023-05-21T00:26:33;10.52;;;9.52;;
30743;SDS011;17486;46.738;7.622;2023-05-21T00:28:58;11.48;;;10.27;;
30743;SDS011;17486;46.738;7.622;2023-05-21T00:31:24;10.05;;;9.13;;
30743;SDS011;17486;46.738;7.622;2023-05-21T00:33:50;12.02;;;9.15;;
30743;SDS011;17486;46.738;7.622;2023-05-21T00:36:15;10.07;;;9.13;;
30743;SDS011;17486;46.738;7.622;2023-05-21T00:38:41;10.10;;;9.07;;
30743;SDS011;17486;46.738;7.622;2023-05-21T00:41:08;10.80;;;9.70;;
30743;SDS011;17486;46.738;7.622;2023-05-21T00:43:34;10.55;;;9.20;;
30743;SDS011;17486;46.738;7.622;2023-05-21T00:46:04;10.05;;;8.75;;
30743;SDS011;17486;46.738;7.622;2023-05-21T00:48:30;10.27;;;9.27;;
30743;SDS011;17486;46.738;7.622;2023-05-21T00:50:56;16.45;;;9.40;;
30743;SDS011;17486;46.738;7.622;2023-05-21T00:53:21;10.35;;;9.32;;
30743;SDS011;17486;46.738;7.622;2023-05-21T00:55:47;12.00;;;10.40;;
30743;SDS011;17486;46.738;7.622;2023-05-21T00:58:14;11.40;;;10.20;;
30743;SDS011;17486;46.738;7.622;2023-05-21T01:00:41;11.13;;;9.98;;
30743;SDS011;17486;46.738;7.622;2023-05-21T01:03:07;10.05;;;9.05;;
30743;SDS011;17486;46.738;7.622;2023-05-21T01:05:34;10.25;;;9.20;;
30743;SDS011;17486;46.738;7.622;2023-05-21T01:08:00;10.43;;;9.30;;
30743;SDS011;17486;46.738;7.622;2023-05-21T01:10:26;12.05;;;9.75;;
30743;SDS011;17486;46.738;7.622;2023-05-21T01:12:53;10.13;;;9.13;;
30743;SDS011;17486;46.738;7.622;2023-05-21T01:15:21;10.93;;;9.82;;
30743;SDS011;17486;46.738;7.622;2023-05-21T01:17:47;11.52;;;10.30;;
30743;SDS011;17486;46.738;7.622;2023-05-21T01:20:13;10.52;;;9.52;;
30743;SDS011;17486;46.738;7.622;2023-05-21T01:22:48;11.65;;;10.27;;
30743;SDS011;17486;46.738;7.622;2023-05-21T01:25:15;14.25;;;10.15;;
30743;SDS011;17486;46.738;7.622;2023-05-21T01:27:41;11.43;;;10.23;;
30743;SDS011;17486;46.738;7.622;2023-05-21T01:30:06;10.77;;;9.77;;
30743;SDS011;17486;46.738;7.622;2023-05-21T01:35:04;10.73;;;9.73;;
30743;SDS011;17486;46.738;7.622;2023-05-21T01:40:29;11.50;;;10.20;;
30743;SDS011;17486;46.738;7.622;2023-05-21T01:42:59;11.43;;;10.23;;
30743;SDS011;17486;46.738;7.622;2023-05-21T01:45:27;12.65;;;9.90;;
30743;SDS011;17486;46.738;7.622;2023-05-21T01:47:56;13.30;;;10.70;;
30743;SDS011;17486;46.738;7.622;2023-05-21T01:50:22;10.77;;;9.77;;
30743;SDS011;17486;46.738;7.622;2023-05-21T01:52:50;11.57;;;10.38;;
30743;SDS011;17486;46.738;7.622;2023-05-21T01:55:17;12.32;;;10.13;;
30743;SDS011;17486;46.738;7.622;2023-05-21T01:57:43;10.82;;;9.73;;
30743;SDS011;17486;46.738;7.622;2023-05-21T02:00:09;13.07;;;10.35;;
30743;SDS011;17486;46.738;7.622;2023-05-21T02:02:36;11.82;;;10.48;;
30743;SDS011;17486;46.738;7.622;2023-05-21T02:05:01;12.27;;;11.00;;
30743;SDS011;17486;46.738;7.622;2023-05-21T02:07:27;11.68;;;10.48;;
30743;SDS011;17486;46.738;7.622;2023-05-21T02:09:56;11.13;;;9.90;;
30743;SDS011;17486;46.738;7.622;2023-05-21T02:12:21;11.57;;;10.38;;
30743;SDS011;17486;46.738;7.622;2023-05-21T02:14:47;11.35;;;10.23;;
30743;SDS011;17486;46.738;7.622;2023-05-21T02:17:14;11.63;;;10.05;;
30743;SDS011;17486;46.738;7.622;2023-05-21T02:19:41;12.52;;;11.00;;
30743;SDS011;17486;46.738;7.622;2023-05-21T02:22:09;11.80;;;10.60;;
30743;SDS011;17486;46.738;7.622;2023-05-21T02:24:34;13.32;;;11.10;;
30743;SDS011;17486;46.738;7.622;2023-05-21T02:27:00;11.85;;;10.52;;
30743;SDS011;17486;46.738;7.622;2023-05-21T02:29:26;12.02;;;10.82;;
30743;SDS011;17486;46.738;7.622;2023-05-21T02:31:52;13.05;;;10.75;;
30743;SDS011;17486;46.738;7.622;2023-05-21T02:34:17;11.43;;;10.23;;
30743;SDS011;17486;46.738;7.622;2023-05-21T02:36:44;11.82;;;10.63;;
30743;SDS011;17486;46.738;7.622;2023-05-21T02:39:12;12.27;;;10.45;;
30743;SDS011;17486;46.738;7.622;2023-05-21T02:41:39;12.00;;;10.80;;
30743;SDS011;17486;46.738;7.622;2023-05-21T02:44:04;11.35;;;10.10;;
30743;SDS011;17486;46.738;7.622;2023-05-21T02:46:30;12.68;;;10.93;;
30743;SDS011;17486;46.738;7.622;2023-05-21T02:48:55;11.18;;;9.93;;
30743;SDS011;17486;46.738;7.622;2023-05-21T02:51:20;14.38;;;10.40;;
30743;SDS011;17486;46.738;7.622;2023-05-21T02:53:46;11.52;;;10.13;;
30743;SDS011;17486;46.738;7.622;2023-05-21T02:56:12;12.52;;;10.05;;
30743;SDS011;17486;46.738;7.622;2023-05-21T02:58:37;11.43;;;10.02;;
30743;SDS011;17486;46.738;7.622;2023-05-21T03:01:02;11.30;;;10.15;;
30743;SDS011;17486;46.738;7.622;2023-05-21T03:03:28;12.00;;;10.20;;
30743;SDS011;17486;46.738;7.622;2023-05-21T03:05:53;11.60;;;10.43;;
30743;SDS011;17486;46.738;7.622;2023-05-21T03:08:19;12.85;;;10.50;;
30743;SDS011;17486;46.738;7.622;2023-05-21T03:10:44;11.32;;;10.07;;
30743;SDS011;17486;46.738;7.622;2023-05-21T03:13:09;11.48;;;10.27;;
30743;SDS011;17486;46.738;7.622;2023-05-21T03:15:35;12.70;;;11.40;;
30743;SDS011;17486;46.738;7.622;2023-05-21T03:18:02;12.65;;;11.05;;
30743;SDS011;17486;46.738;7.622;2023-05-21T03:20:28;11.75;;;10.65;;
30743;SDS011;17486;46.738;7.622;2023-05-21T03:22:53;12.05;;;10.82;;
30743;SDS011;17486;46.738;7.622;2023-05-21T03:25:19;13.20;;;10.68;;
30743;SDS011;17486;46.738;7.622;2023-05-21T03:27:45;12.05;;;10.82;;
30743;SDS011;17486;46.738;7.622;2023-05-21T03:30:11;11.98;;;10.77;;
30743;SDS011;17486;46.738;7.622;2023-05-21T03:32:37;11.55;;;10.43;;
30743;SDS011;17486;46.738;7.622;2023-05-21T03:35:05;11.10;;;10.00;;
30743;SDS011;17486;46.738;7.622;2023-05-21T03:37:31;12.43;;;10.48;;
30743;SDS011;17486;46.738;7.622;2023-05-21T03:39:56;11.82;;;10.63;;
30743;SDS011;17486;46.738;7.622;2023-05-21T03:42:21;13.82;;;9.98;;
30743;SDS011;17486;46.738;7.622;2023-05-21T03:44:47;11.18;;;10.02;;
30743;SDS011;17486;46.738;7.622;2023-05-21T03:47:12;10.50;;;9.45;;
30743;SDS011;17486;46.738;7.622;2023-05-21T03:49:38;11.88;;;10.77;;
30743;SDS011;17486;46.738;7.622;2023-05-21T03:52:03;12.48;;;11.18;;
30743;SDS011;17486;46.738;7.622;2023-05-21T03:54:29;11.65;;;10.45;;
30743;SDS011;17486;46.738;7.622;2023-05-21T03:56:54;13.30;;;11.18;;
30743;SDS011;17486;46.738;7.622;2023-05-21T03:59:20;12.10;;;10.82;;
30743;SDS011;17486;46.738;7.622;2023-05-21T04:01:45;12.65;;;10.55;;
30743;SDS011;17486;46.738;7.622;2023-05-21T04:04:11;11.82;;;10.15;;
30743;SDS011;17486;46.738;7.622;2023-05-21T04:06:36;14.82;;;9.95;;
30743;SDS011;17486;46.738;7.622;2023-05-21T04:09:02;11.15;;;9.75;;
30743;SDS011;17486;46.738;7.622;2023-05-21T04:11:28;11.63;;;10.43;;
30743;SDS011;17486;46.738;7.622;2023-05-21T04:13:55;10.07;;;9.07;;
30743;SDS011;17486;46.738;7.622;2023-05-21T04:16:20;10.63;;;9.50;;
30743;SDS011;17486;46.738;7.622;2023-05-21T04:18:46;11.20;;;9.38;;
30743;SDS011;17486;46.738;7.622;2023-05-21T04:21:11;10.82;;;9.05;;
30743;SDS011;17486;46.738;7.622;2023-05-21T04:23:37;12.27;;;9.48;;
30743;SDS011;17486;46.738;7.622;2023-05-21T04:26:02;11.32;;;9.48;;
30743;SDS011;17486;46.738;7.622;2023-05-21T04:28:28;10.93;;;9.77;;
30743;SDS011;17486;46.738;7.622;2023-05-21T04:30:54;11.13;;;9.90;;
30743;SDS011;17486;46.738;7.622;2023-05-21T04:33:20;12.15;;;10.23;;
30743;SDS011;17486;46.738;7.622;2023-05-21T04:35:47;10.80;;;9.75;;
30743;SDS011;17486;46.738;7.622;2023-05-21T04:38:15;10.40;;;9.30;;
30743;SDS011;17486;46.738;7.622;2023-05-21T04:40:44;10.82;;;9.70;;
30743;SDS011;17486;46.738;7.622;2023-05-21T04:43:11;11.02;;;9.93;;
30743;SDS011;17486;46.738;7.622;2023-05-21T04:45:36;12.13;;;9.85;;
30743;SDS011;17486;46.738;7.622;2023-05-21T04:48:01;13.30;;;8.93;;
30743;SDS011;17486;46.738;7.622;2023-05-21T04:50:27;10.73;;;9.70;;
30743;SDS011;17486;46.738;7.622;2023-05-21T04:52:54;10.90;;;9.52;;
30743;SDS011;17486;46.738;7.622;2023-05-21T04:55:20;10.57;;;9.50;;
30743;SDS011;17486;46.738;7.622;2023-05-21T04:57:46;10.40;;;9.30;;
30743;SDS011;17486;46.738;7.622;2023-05-21T05:00:12;10.57;;;9.40;;
30743;SDS011;17486;46.738;7.622;2023-05-21T05:02:38;10.43;;;9.40;;
30743;SDS011;17486;46.738;7.622;2023-05-21T05:05:03;10.80;;;9.70;;
30743;SDS011;17486;46.738;7.622;2023-05-21T05:07:29;10.25;;;9.15;;
30743;SDS011;17486;46.738;7.622;2023-05-21T05:09:54;10.75;;;9.38;;
30743;SDS011;17486;46.738;7.622;2023-05-21T05:12:19;9.52;;;8.63;;
30743;SDS011;17486;46.738;7.622;2023-05-21T05:14:45;10.30;;;9.30;;
30743;SDS011;17486;46.738;7.622;2023-05-21T05:17:10;9.93;;;9.00;;
30743;SDS011;17486;46.738;7.622;2023-05-21T05:19:38;10.57;;;8.93;;
30743;SDS011;17486;46.738;7.622;2023-05-21T05:22:04;11.63;;;9.05;;
30743;SDS011;17486;46.738;7.622;2023-05-21T05:24:29;11.25;;;8.95;;
30743;SDS011;17486;46.738;7.622;2023-05-21T05:26:54;9.48;;;8.50;;
30743;SDS011;17486;46.738;7.622;2023-05-21T05:29:20;9.77;;;8.77;;
30743;SDS011;17486;46.738;7.622;2023-05-21T05:31:45;9.10;;;8.18;;
30743;SDS011;17486;46.738;7.622;2023-05-21T05:34:11;9.05;;;8.15;;
30743;SDS011;17486;46.738;7.622;2023-05-21T05:36:36;8.48;;;7.68;;
30743;SDS011;17486;46.738;7.622;2023-05-21T05:39:01;8.88;;;7.97;;
30743;SDS011;17486;46.738;7.622;2023-05-21T05:41:27;9.38;;;8.48;;
30743;SDS011;17486;46.738;7.622;2023-05-21T05:43:52;8.93;;;7.97;;
30743;SDS011;17486;46.738;7.622;2023-05-21T05:46:18;9.98;;;8.15;;
30743;SDS011;17486;46.738;7.622;2023-05-21T05:48:43;9.32;;;7.63;;
30743;SDS011;17486;46.738;7.622;2023-05-21T05:51:08;9.88;;;7.55;;
30743;SDS011;17486;46.738;7.622;2023-05-21T05:53:35;7.90;;;7.10;;
30743;SDS011;17486;46.738;7.622;2023-05-21T05:56:01;7.90;;;7.10;;
30743;SDS011;17486;46.738;7.622;2023-05-21T05:58:28;8.75;;;7.35;;
30743;SDS011;17486;46.738;7.622;2023-05-21T06:00:54;8.75;;;7.38;;
30743;SDS011;17486;46.738;7.622;2023-05-21T06:03:19;8.38;;;7.57;;
30743;SDS011;17486;46.738;7.622;2023-05-21T06:05:45;7.82;;;7.03;;
30743;SDS011;17486;46.738;7.622;2023-05-21T06:08:10;8.20;;;7.40;;
30743;SDS011;17486;46.738;7.622;2023-05-21T06:10:35;8.35;;;7.55;;
30743;SDS011;17486;46.738;7.622;2023-05-21T06:13:01;7.63;;;6.93;;
30743;SDS011;17486;46.738;7.622;2023-05-21T06:15:26;7.88;;;7.07;;
30743;SDS011;17486;46.738;7.622;2023-05-21T06:17:52;7.35;;;6.65;;
30743;SDS011;17486;46.738;7.622;2023-05-21T06:20:17;8.00;;;7.20;;
30743;SDS011;17486;46.738;7.622;2023-05-21T06:22:43;7.00;;;6.28;;
30743;SDS011;17486;46.738;7.622;2023-05-21T06:25:08;8.18;;;7.32;;
30743;SDS011;17486;46.738;7.622;2023-05-21T06:27:34;7.65;;;6.85;;
30743;SDS011;17486;46.738;7.622;2023-05-21T06:30:00;8.35;;;7.45;;
30743;SDS011;17486;46.738;7.622;2023-05-21T06:32:25;8.85;;;7.95;;
30743;SDS011;17486;46.738;7.622;2023-05-21T06:34:50;8.95;;;7.25;;
30743;SDS011;17486;46.738;7.622;2023-05-21T06:37:17;8.15;;;7.30;;
30743;SDS011;17486;46.738;7.622;2023-05-21T06:39:47;8.53;;;7.63;;
30743;SDS011;17486;46.738;7.622;2023-05-21T06:42:13;8.93;;;8.02;;
30743;SDS011;17486;46.738;7.622;2023-05-21T06:44:38;9.45;;;8.00;;
30743;SDS011;17486;46.738;7.622;2023-05-21T06:47:03;8.52;;;7.72;;
30743;SDS011;17486;46.738;7.622;2023-05-21T06:49:29;8.90;;;7.70;;
30743;SDS011;17486;46.738;7.622;2023-05-21T06:51:54;8.00;;;7.20;;
30743;SDS011;17486;46.738;7.622;2023-05-21T06:54:20;8.15;;;7.35;;
30743;SDS011;17486;46.738;7.622;2023-05-21T06:56:45;8.60;;;7.80;;
30743;SDS011;17486;46.738;7.622;2023-05-21T06:59:10;9.10;;;8.20;;
30743;SDS011;17486;46.738;7.622;2023-05-21T07:01:36;9.00;;;7.75;;
30743;SDS011;17486;46.738;7.622;2023-05-21T07:04:01;8.65;;;7.85;;
30743;SDS011;17486;46.738;7.622;2023-05-21T07:06:27;9.18;;;8.27;;
30743;SDS011;17486;46.738;7.622;2023-05-21T07:08:52;8.02;;;7.22;;
30743;SDS011;17486;46.738;7.622;2023-05-21T07:11:17;8.38;;;7.57;;
30743;SDS011;17486;46.738;7.622;2023-05-21T07:13:43;8.18;;;7.35;;
30743;SDS011;17486;46.738;7.622;2023-05-21T07:16:08;8.18;;;6.50;;
30743;SDS011;17486;46.738;7.622;2023-05-21T07:18:33;8.25;;;7.07;;
30743;SDS011;17486;46.738;7.622;2023-05-21T07:20:59;7.75;;;6.95;;
30743;SDS011;17486;46.738;7.622;2023-05-21T07:23:25;7.47;;;6.70;;
30743;SDS011;17486;46.738;7.622;2023-05-21T07:25:50;6.63;;;5.93;;
30743;SDS011;17486;46.738;7.622;2023-05-21T07:28:15;106.47;;;78.78;;
30743;SDS011;17486;46.738;7.622;2023-05-21T07:30:41;245.10;;;183.63;;
30743;SDS011;17486;46.738;7.622;2023-05-21T07:33:06;189.88;;;141.20;;
30743;SDS011;17486;46.738;7.622;2023-05-21T07:35:31;233.45;;;166.00;;
30743;SDS011;17486;46.738;7.622;2023-05-21T07:37:57;204.70;;;144.73;;
30743;SDS011;17486;46.738;7.622;2023-05-21T07:40:22;63.70;;;48.97;;
30743;SDS011;17486;46.738;7.622;2023-05-21T07:42:48;23.98;;;19.98;;
30743;SDS011;17486;46.738;7.622;2023-05-21T07:45:13;10.25;;;8.68;;
30743;SDS011;17486;46.738;7.622;2023-05-21T07:47:38;6.63;;;5.65;;
30743;SDS011;17486;46.738;7.622;2023-05-21T07:50:04;6.43;;;5.78;;
30743;SDS011;17486;46.738;7.622;2023-05-21T07:52:30;6.88;;;5.47;;
30743;SDS011;17486;46.738;7.622;2023-05-21T07:54:55;6.22;;;5.63;;
30743;SDS011;17486;46.738;7.622;2023-05-21T07:57:20;9.10;;;5.93;;
30743;SDS011;17486;46.738;7.622;2023-05-21T07:59:47;6.50;;;5.90;;
30743;SDS011;17486;46.738;7.622;2023-05-21T08:02:12;6.50;;;5.90;;
30743;SDS011;17486;46.738;7.622;2023-05-21T08:04:38;6.90;;;6.28;;
30743;SDS011;17486;46.738;7.622;2023-05-21T08:07:04;6.78;;;6.15;;
30743;SDS011;17486;46.738;7.622;2023-05-21T08:09:29;8.50;;;6.35;;
30743;SDS011;17486;46.738;7.622;2023-05-21T08:11:56;63.92;;;48.63;;
30743;SDS011;17486;46.738;7.622;2023-05-21T08:14:21;108.40;;;80.53;;
30743;SDS011;17486;46.738;7.622;2023-05-21T08:16:47;176.50;;;129.02;;
30743;SDS011;17486;46.738;7.622;2023-05-21T08:19:12;90.72;;;69.88;;
30743;SDS011;17486;46.738;7.622;2023-05-21T08:21:37;28.40;;;23.25;;
30743;SDS011;17486;46.738;7.622;2023-05-21T08:24:03;13.27;;;11.88;;
30743;SDS011;17486;46.738;7.622;2023-05-21T08:26:28;9.77;;;8.52;;
30743;SDS011;17486;46.738;7.622;2023-05-21T08:28:54;9.15;;;7.03;;
30743;SDS011;17486;46.738;7.622;2023-05-21T08:31:19;8.25;;;7.30;;
30743;SDS011;17486;46.738;7.622;2023-05-21T08:33:52;7.18;;;6.47;;
30743;SDS011;17486;46.738;7.622;2023-05-21T08:36:18;8.95;;;7.85;;
30743;SDS011;17486;46.738;7.622;2023-05-21T08:38:44;9.52;;;7.85;;
30743;SDS011;17486;46.738;7.622;2023-05-21T08:41:10;8.05;;;7.25;;
30743;SDS011;17486;46.738;7.622;2023-05-21T08:43:36;9.32;;;8.45;;
30743;SDS011;17486;46.738;7.622;2023-05-21T08:46:03;9.65;;;7.45;;
30743;SDS011;17486;46.738;7.622;2023-05-21T08:48:28;8.18;;;7.38;;
30743;SDS011;17486;46.738;7.622;2023-05-21T08:50:55;8.70;;;7.88;;
30743;SDS011;17486;46.738;7.622;2023-05-21T08:53:22;9.13;;;8.23;;
30743;SDS011;17486;46.738;7.622;2023-05-21T08:55:49;8.32;;;7.57;;
30743;SDS011;17486;46.738;7.622;2023-05-21T08:58:16;8.63;;;7.80;;
30743;SDS011;17486;46.738;7.622;2023-05-21T09:00:42;8.65;;;7.70;;
30743;SDS011;17486;46.738;7.622;2023-05-21T09:03:09;10.27;;;8.13;;
30743;SDS011;17486;46.738;7.622;2023-05-21T09:05:43;9.40;;;7.50;;
30743;SDS011;17486;46.738;7.622;2023-05-21T09:08:13;9.23;;;8.25;;
30743;SDS011;17486;46.738;7.622;2023-05-21T09:10:49;8.52;;;7.47;;
30743;SDS011;17486;46.738;7.622;2023-05-21T09:13:15;9.27;;;8.38;;
30743;SDS011;17486;46.738;7.622;2023-05-21T09:15:45;10.05;;;9.05;;
30743;SDS011;17486;46.738;7.622;2023-05-21T09:18:11;9.90;;;8.90;;
30743;SDS011;17486;46.738;7.622;2023-05-21T09:20:37;10.50;;;8.90;;
30743;SDS011;17486;46.738;7.622;2023-05-21T09:23:03;10.02;;;9.00;;
30743;SDS011;17486;46.738;7.622;2023-05-21T09:25:31;10.18;;;9.00;;
30743;SDS011;17486;46.738;7.622;2023-05-21T09:27:57;10.32;;;9.40;;
30743;SDS011;17486;46.738;7.622;2023-05-21T09:30:23;12.15;;;10.93;;
30743;SDS011;17486;46.738;7.622;2023-05-21T09:32:56;12.48;;;11.15;;
30743;SDS011;17486;46.738;7.622;2023-05-21T09:35:23;10.82;;;9.73;;
30743;SDS011;17486;46.738;7.622;2023-05-21T09:37:49;9.88;;;8.88;;
30743;SDS011;17486;46.738;7.622;2023-05-21T09:42:49;9.15;;;8.20;;
30743;SDS011;17486;46.738;7.622;2023-05-21T09:45:22;10.43;;;9.30;;
30743;SDS011;17486;46.738;7.622;2023-05-21T09:47:50;9.65;;;8.75;;
30743;SDS011;17486;46.738;7.622;2023-05-21T09:50:21;11.02;;;8.55;;
30743;SDS011;17486;46.738;7.622;2023-05-21T09:52:48;8.77;;;7.88;;
30743;SDS011;17486;46.738;7.622;2023-05-21T09:55:16;8.50;;;7.63;;
30743;SDS011;17486;46.738;7.622;2023-05-21T09:57:48;8.10;;;7.30;;
30743;SDS011;17486;46.738;7.622;2023-05-21T10:02:44;7.35;;;6.75;;
30743;SDS011;17486;46.738;7.622;2023-05-21T10:05:13;7.60;;;6.90;;
30743;SDS011;17486;46.738;7.622;2023-05-21T10:07:50;7.47;;;6.63;;
30743;SDS011;17486;46.738;7.622;2023-05-21T10:10:20;7.05;;;6.35;;
30743;SDS011;17486;46.738;7.622;2023-05-21T10:12:47;7.68;;;6.90;;
30743;SDS011;17486;46.738;7.622;2023-05-21T10:15:19;9.07;;;7.82;;
30743;SDS011;17486;46.738;7.622;2023-05-21T10:17:47;8.65;;;7.38;;
30743;SDS011;17486;46.738;7.622;2023-05-21T10:20:13;8.82;;;7.88;;
30743;SDS011;17486;46.738;7.622;2023-05-21T10:22:40;7.93;;;7.13;;
30743;SDS011;17486;46.738;7.622;2023-05-21T10:25:06;9.50;;;7.03;;
30743;SDS011;17486;46.738;7.622;2023-05-21T10:27:33;7.05;;;6.38;;
30743;SDS011;17486;46.738;7.622;2023-05-21T10:29:59;7.03;;;6.32;;
30743;SDS011;17486;46.738;7.622;2023-05-21T10:32:26;6.18;;;5.60;;
30743;SDS011;17486;46.738;7.622;2023-05-21T10:34:52;6.13;;;5.10;;
30743;SDS011;17486;46.738;7.622;2023-05-21T10:37:19;4.95;;;4.55;;
30743;SDS011;17486;46.738;7.622;2023-05-21T10:39:55;5.38;;;4.85;;
30743;SDS011;17486;46.738;7.622;2023-05-21T10:47:57;4.20;;;3.80;;
30743;SDS011;17486;46.738;7.622;2023-05-21T10:53:07;4.30;;;3.90;;
30743;SDS011;17486;46.738;7.622;2023-05-21T11:01:33;7.07;;;5.40;;
30743;SDS011;17486;46.738;7.622;2023-05-21T11:04:02;5.28;;;4.88;;
30743;SDS011;17486;46.738;7.622;2023-05-21T11:06:28;5.80;;;5.25;;
30743;SDS011;17486;46.738;7.622;2023-05-21T11:08:55;5.35;;;4.70;;
30743;SDS011;17486;46.738;7.622;2023-05-21T11:14:27;6.43;;;5.70;;
30743;SDS011;17486;46.738;7.622;2023-05-21T11:17:00;5.97;;;5.35;;
30743;SDS011;17486;46.738;7.622;2023-05-21T11:19:40;6.15;;;5.38;;
30743;SDS011;17486;46.738;7.622;2023-05-21T11:22:23;5.53;;;5.03;;
30743;SDS011;17486;46.738;7.622;2023-05-21T11:24:50;6.22;;;5.65;;
30743;SDS011;17486;46.738;7.622;2023-05-21T11:30:28;5.60;;;5.13;;
30743;SDS011;17486;46.738;7.622;2023-05-21T11:35:56;6.28;;;5.38;;
30743;SDS011;17486;46.738;7.622;2023-05-21T11:38:27;6.57;;;5.10;;
30743;SDS011;17486;46.738;7.622;2023-05-21T11:40:59;5.13;;;4.63;;
30743;SDS011;17486;46.738;7.622;2023-05-21T11:43:26;5.85;;;5.20;;
30743;SDS011;17486;46.738;7.622;2023-05-21T11:45:52;4.88;;;4.40;;
30743;SDS011;17486;46.738;7.622;2023-05-21T11:48:19;4.82;;;4.32;;
30743;SDS011;17486;46.738;7.622;2023-05-21T11:50:48;4.63;;;4.20;;
30743;SDS011;17486;46.738;7.622;2023-05-21T11:53:13;4.80;;;4.40;;
30743;SDS011;17486;46.738;7.622;2023-05-21T11:55:39;4.63;;;4.15;;
30743;SDS011;17486;46.738;7.622;2023-05-21T11:58:11;3.28;;;2.97;;
30743;SDS011;17486;46.738;7.622;2023-05-21T12:00:38;4.40;;;4.00;;
30743;SDS011;17486;46.738;7.622;2023-05-21T12:03:04;5.57;;;4.95;;
30743;SDS011;17486;46.738;7.622;2023-05-21T12:05:30;5.28;;;4.78;;
30743;SDS011;17486;46.738;7.622;2023-05-21T12:08:08;5.88;;;5.28;;
30743;SDS011;17486;46.738;7.622;2023-05-21T12:10:36;5.43;;;4.93;;
30743;SDS011;17486;46.738;7.622;2023-05-21T12:13:03;5.25;;;4.72;;
30743;SDS011;17486;46.738;7.622;2023-05-21T12:15:29;5.97;;;4.93;;
30743;SDS011;17486;46.738;7.622;2023-05-21T12:17:54;5.55;;;5.05;;
30743;SDS011;17486;46.738;7.622;2023-05-21T12:20:20;5.95;;;4.38;;
30743;SDS011;17486;46.738;7.622;2023-05-21T12:22:47;4.70;;;4.38;;
30743;SDS011;17486;46.738;7.622;2023-05-21T12:25:13;4.35;;;4.05;;
30743;SDS011;17486;46.738;7.622;2023-05-21T12:27:38;4.50;;;3.30;;
30743;SDS011;17486;46.738;7.622;2023-05-21T12:30:06;3.92;;;3.45;;
30743;SDS011;17486;46.738;7.622;2023-05-21T12:32:32;4.28;;;3.58;;
30743;SDS011;17486;46.738;7.622;2023-05-21T12:34:57;4.90;;;4.50;;
30743;SDS011;17486;46.738;7.622;2023-05-21T12:37:24;4.50;;;4.10;;
30743;SDS011;17486;46.738;7.622;2023-05-21T12:39:51;4.55;;;4.15;;
30743;SDS011;17486;46.738;7.622;2023-05-21T12:42:27;4.93;;;4.43;;
30743;SDS011;17486;46.738;7.622;2023-05-21T12:44:54;4.80;;;4.35;;
30743;SDS011;17486;46.738;7.622;2023-05-21T12:47:24;5.30;;;4.28;;
30743;SDS011;17486;46.738;7.622;2023-05-21T12:49:55;6.43;;;4.03;;
30743;SDS011;17486;46.738;7.622;2023-05-21T12:52:24;5.85;;;4.93;;
30743;SDS011;17486;46.738;7.622;2023-05-21T12:54:51;5.25;;;4.75;;
30743;SDS011;17486;46.738;7.622;2023-05-21T12:57:21;4.72;;;4.32;;
30743;SDS011;17486;46.738;7.622;2023-05-21T12:59:57;5.05;;;4.55;;
30743;SDS011;17486;46.738;7.622;2023-05-21T13:02:25;6.20;;;4.18;;
30743;SDS011;17486;46.738;7.622;2023-05-21T13:04:56;4.32;;;3.92;;
30743;SDS011;17486;46.738;7.622;2023-05-21T13:07:23;5.60;;;4.18;;
30743;SDS011;17486;46.738;7.622;2023-05-21T13:09:50;4.63;;;4.20;;
30743;SDS011;17486;46.738;7.622;2023-05-21T13:12:17;5.38;;;3.90;;
30743;SDS011;17486;46.738;7.622;2023-05-21T13:14:47;4.50;;;3.88;;
30743;SDS011;17486;46.738;7.622;2023-05-21T13:17:13;3.97;;;3.63;;
30743;SDS011;17486;46.738;7.622;2023-05-21T13:19:39;4.10;;;3.70;;
30743;SDS011;17486;46.738;7.622;2023-05-21T13:22:05;4.65;;;3.55;;
30743;SDS011;17486;46.738;7.622;2023-05-21T13:24:31;3.80;;;3.50;;
30743;SDS011;17486;46.738;7.622;2023-05-21T13:26:56;4.30;;;4.00;;
30743;SDS011;17486;46.738;7.622;2023-05-21T13:29:22;4.10;;;3.75;;
30743;SDS011;17486;46.738;7.622;2023-05-21T13:31:47;4.40;;;4.00;;
30743;SDS011;17486;46.738;7.622;2023-05-21T13:34:12;3.97;;;3.67;;
30743;SDS011;17486;46.738;7.622;2023-05-21T13:36:38;4.00;;;3.42;;
30743;SDS011;17486;46.738;7.622;2023-05-21T13:39:04;4.25;;;3.60;;
30743;SDS011;17486;46.738;7.622;2023-05-21T13:41:30;3.40;;;3.13;;
30743;SDS011;17486;46.738;7.622;2023-05-21T13:43:56;3.72;;;3.42;;
30743;SDS011;17486;46.738;7.622;2023-05-21T13:46:21;3.90;;;3.60;;
30743;SDS011;17486;46.738;7.622;2023-05-21T13:48:47;3.22;;;2.92;;
30743;SDS011;17486;46.738;7.622;2023-05-21T13:51:12;3.50;;;3.20;;
30743;SDS011;17486;46.738;7.622;2023-05-21T13:53:38;4.00;;;2.90;;
30743;SDS011;17486;46.738;7.622;2023-05-21T13:56:03;3.15;;;2.95;;
30743;SDS011;17486;46.738;7.622;2023-05-21T13:58:29;3.05;;;2.85;;
30743;SDS011;17486;46.738;7.622;2023-05-21T14:00:58;3.72;;;2.75;;
30743;SDS011;17486;46.738;7.622;2023-05-21T14:03:24;6.10;;;3.20;;
30743;SDS011;17486;46.738;7.622;2023-05-21T14:05:51;3.55;;;3.25;;
30743;SDS011;17486;46.738;7.622;2023-05-21T14:08:17;3.13;;;2.90;;
30743;SDS011;17486;46.738;7.622;2023-05-21T14:10:44;3.03;;;2.83;;
30743;SDS011;17486;46.738;7.622;2023-05-21T14:13:11;2.95;;;2.70;;
30743;SDS011;17486;46.738;7.622;2023-05-21T14:15:36;3.00;;;2.80;;
30743;SDS011;17486;46.738;7.622;2023-05-21T14:18:02;3.17;;;2.80;;
30743;SDS011;17486;46.738;7.622;2023-05-21T14:20:31;3.15;;;2.55;;
30743;SDS011;17486;46.738;7.622;2023-05-21T14:22:57;3.22;;;2.92;;
30743;SDS011;17486;46.738;7.622;2023-05-21T14:25:22;2.85;;;2.65;;
30743;SDS011;17486;46.738;7.622;2023-05-21T14:27:48;3.53;;;2.88;;
30743;SDS011;17486;46.738;7.622;2023-05-21T14:30:13;3.40;;;3.05;;
30743;SDS011;17486;46.738;7.622;2023-05-21T14:32:38;2.40;;;2.30;;
30743;SDS011;17486;46.738;7.622;2023-05-21T14:35:04;3.50;;;2.78;;
30743;SDS011;17486;46.738;7.622;2023-05-21T14:37:29;3.47;;;3.15;;
30743;SDS011;17486;46.738;7.622;2023-05-21T14:39:55;3.38;;;3.08;;
30743;SDS011;17486;46.738;7.622;2023-05-21T14:42:20;2.55;;;2.35;;
30743;SDS011;17486;46.738;7.622;2023-05-21T14:44:45;3.20;;;2.90;;
30743;SDS011;17486;46.738;7.622;2023-05-21T14:47:11;2.85;;;2.58;;
30743;SDS011;17486;46.738;7.622;2023-05-21T14:49:36;2.55;;;2.35;;
30743;SDS011;17486;46.738;7.622;2023-05-21T14:52:01;2.92;;;2.70;;
30743;SDS011;17486;46.738;7.622;2023-05-21T14:54:27;2.60;;;2.40;;
30743;SDS011;17486;46.738;7.622;2023-05-21T14:56:52;2.72;;;2.53;;
30743;SDS011;17486;46.738;7.622;2023-05-21T14:59:18;3.60;;;2.60;;
30743;SDS011;17486;46.738;7.622;2023-05-21T15:01:43;2.55;;;2.45;;
30743;SDS011;17486;46.738;7.622;2023-05-21T15:04:09;3.47;;;2.75;;
30743;SDS011;17486;46.738;7.622;2023-05-21T15:06:34;3.85;;;3.00;;
30743;SDS011;17486;46.738;7.622;2023-05-21T15:08:59;3.00;;;2.80;;